Terminal Aerodrome Forecast
Issued by NWS

Home | Current Version | Previous Version | Text Only | Print | Product List | Glossary On
Versions: 1 2 3 4 5 6 7 8 9 10 11 12 13 14 15 16 17
685
FTUS41 KCAR 260331 AAA
TAFPQI
TAF AMD
KPQI 260331Z 2604/2624 15010KT P6SM -RA OVC050
     FM260600 15010KT 3SM -RA BR OVC020
     FM260800 15010KT 3SM -RA BR OVC005
     FM261400 15010KT 5SM -RA BR OVC008=

USA.gov is the U.S. government's official web portal to all federal, state and local government web resources and services.